sensor_id;sensor_type;location;lat;lon;timestamp;temperature;humidity
4637;DHT22;2331;48.806;9.140;2023-08-17T00:02:14;23.60;1.00
4637;DHT22;2331;48.806;9.140;2023-08-17T00:04:41;23.60;1.00
4637;DHT22;2331;48.806;9.140;2023-08-17T00:07:08;23.70;1.00
4637;DHT22;2331;48.806;9.140;2023-08-17T00:09:34;23.70;1.00
4637;DHT22;2331;48.806;9.140;2023-08-17T00:12:01;23.70;1.00
4637;DHT22;2331;48.806;9.140;2023-08-17T00:14:29;23.60;1.00
4637;DHT22;2331;48.806;9.140;2023-08-17T00:16:56;23.60;1.00
4637;DHT22;2331;48.806;9.140;2023-08-17T00:19:24;23.60;1.00
4637;DHT22;2331;48.806;9.140;2023-08-17T00:21:51;23.60;1.00
4637;DHT22;2331;48.806;9.140;2023-08-17T00:24:18;23.60;1.00
4637;DHT22;2331;48.806;9.140;2023-08-17T00:26:45;23.60;1.00
4637;DHT22;2331;48.806;9.140;2023-08-17T00:29:12;23.50;1.00
4637;DHT22;2331;48.806;9.140;2023-08-17T00:31:40;23.50;1.00
4637;DHT22;2331;48.806;9.140;2023-08-17T00:34:07;23.50;1.00
4637;DHT22;2331;48.806;9.140;2023-08-17T00:36:35;23.60;1.00
4637;DHT22;2331;48.806;9.140;2023-08-17T00:39:01;23.60;1.00
4637;DHT22;2331;48.806;9.140;2023-08-17T00:41:28;23.60;1.00
4637;DHT22;2331;48.806;9.140;2023-08-17T00:43:55;23.50;1.00
4637;DHT22;2331;48.806;9.140;2023-08-17T00:46:22;23.50;1.00
4637;DHT22;2331;48.806;9.140;2023-08-17T00:48:50;23.50;1.00
4637;DHT22;2331;48.806;9.140;2023-08-17T00:51:17;23.50;1.00
4637;DHT22;2331;48.806;9.140;2023-08-17T00:53:47;23.60;1.00
4637;DHT22;2331;48.806;9.140;2023-08-17T00:56:13;23.50;1.00
4637;DHT22;2331;48.806;9.140;2023-08-17T00:58:40;23.60;1.00
4637;DHT22;2331;48.806;9.140;2023-08-17T01:01:08;23.60;1.00
4637;DHT22;2331;48.806;9.140;2023-08-17T01:03:35;23.50;1.00
4637;DHT22;2331;48.806;9.140;2023-08-17T01:06:02;23.50;1.00
4637;DHT22;2331;48.806;9.140;2023-08-17T01:08:29;23.50;1.00
4637;DHT22;2331;48.806;9.140;2023-08-17T01:11:04;23.50;1.00
4637;DHT22;2331;48.806;9.140;2023-08-17T01:13:36;23.50;1.00
4637;DHT22;2331;48.806;9.140;2023-08-17T01:16:09;23.50;1.00
4637;DHT22;2331;48.806;9.140;2023-08-17T01:18:39;23.50;1.00
4637;DHT22;2331;48.806;9.140;2023-08-17T01:21:08;23.50;1.00
4637;DHT22;2331;48.806;9.140;2023-08-17T01:23:37;23.50;1.00
4637;DHT22;2331;48.806;9.140;2023-08-17T01:26:04;23.50;1.00
4637;DHT22;2331;48.806;9.140;2023-08-17T01:28:31;23.50;1.00
4637;DHT22;2331;48.806;9.140;2023-08-17T01:31:02;23.50;1.00
4637;DHT22;2331;48.806;9.140;2023-08-17T01:33:37;23.50;1.00
4637;DHT22;2331;48.806;9.140;2023-08-17T01:36:13;23.50;1.00
4637;DHT22;2331;48.806;9.140;2023-08-17T01:38:46;23.50;1.00
4637;DHT22;2331;48.806;9.140;2023-08-17T01:41:13;23.50;1.00
4637;DHT22;2331;48.806;9.140;2023-08-17T01:43:41;23.50;1.00
4637;DHT22;2331;48.806;9.140;2023-08-17T01:46:13;23.50;1.00
4637;DHT22;2331;48.806;9.140;2023-08-17T01:48:39;23.50;1.00
4637;DHT22;2331;48.806;9.140;2023-08-17T01:51:06;23.50;1.00
4637;DHT22;2331;48.806;9.140;2023-08-17T01:53:33;23.50;1.00
4637;DHT22;2331;48.806;9.140;2023-08-17T01:56:01;23.50;1.00
4637;DHT22;2331;48.806;9.140;2023-08-17T01:58:27;23.50;1.00
4637;DHT22;2331;48.806;9.140;2023-08-17T02:00:54;23.50;1.00
4637;DHT22;2331;48.806;9.140;2023-08-17T02:03:21;23.50;1.00
4637;DHT22;2331;48.806;9.140;2023-08-17T02:05:47;23.60;1.00
4637;DHT22;2331;48.806;9.140;2023-08-17T02:08:14;23.50;1.00
4637;DHT22;2331;48.806;9.140;2023-08-17T02:10:41;23.50;1.00
4637;DHT22;2331;48.806;9.140;2023-08-17T02:13:09;23.50;1.00
4637;DHT22;2331;48.806;9.140;2023-08-17T02:15:38;23.50;1.00
4637;DHT22;2331;48.806;9.140;2023-08-17T02:18:05;23.50;1.00
4637;DHT22;2331;48.806;9.140;2023-08-17T02:20:32;23.50;1.00
4637;DHT22;2331;48.806;9.140;2023-08-17T02:22:58;23.50;1.00
4637;DHT22;2331;48.806;9.140;2023-08-17T02:25:25;23.50;1.00
4637;DHT22;2331;48.806;9.140;2023-08-17T02:27:52;23.50;1.00
4637;DHT22;2331;48.806;9.140;2023-08-17T02:30:20;23.50;1.00
4637;DHT22;2331;48.806;9.140;2023-08-17T02:32:47;23.50;1.00
4637;DHT22;2331;48.806;9.140;2023-08-17T02:35:13;23.50;1.00
4637;DHT22;2331;48.806;9.140;2023-08-17T02:37:40;23.50;1.00
4637;DHT22;2331;48.806;9.140;2023-08-17T02:40:08;23.50;1.00
4637;DHT22;2331;48.806;9.140;2023-08-17T02:42:34;23.50;1.00
4637;DHT22;2331;48.806;9.140;2023-08-17T02:45:01;23.50;1.00
4637;DHT22;2331;48.806;9.140;2023-08-17T02:47:29;23.50;1.00
4637;DHT22;2331;48.806;9.140;2023-08-17T02:49:56;23.50;1.00
4637;DHT22;2331;48.806;9.140;2023-08-17T02:52:22;23.50;1.00
4637;DHT22;2331;48.806;9.140;2023-08-17T02:54:49;23.50;1.00
4637;DHT22;2331;48.806;9.140;2023-08-17T02:57:16;23.50;1.00
4637;DHT22;2331;48.806;9.140;2023-08-17T02:59:43;23.50;1.00
4637;DHT22;2331;48.806;9.140;2023-08-17T03:02:10;23.50;1.00
4637;DHT22;2331;48.806;9.140;2023-08-17T03:04:38;23.50;1.00
4637;DHT22;2331;48.806;9.140;2023-08-17T03:07:06;23.50;1.00
4637;DHT22;2331;48.806;9.140;2023-08-17T03:09:33;23.50;1.00
4637;DHT22;2331;48.806;9.140;2023-08-17T03:11:59;23.50;1.00
4637;DHT22;2331;48.806;9.140;2023-08-17T03:14:26;23.50;1.00
4637;DHT22;2331;48.806;9.140;2023-08-17T03:16:53;23.50;1.00
4637;DHT22;2331;48.806;9.140;2023-08-17T03:19:20;23.60;1.00
4637;DHT22;2331;48.806;9.140;2023-08-17T03:21:48;23.60;1.00
4637;DHT22;2331;48.806;9.140;2023-08-17T03:24:15;23.60;1.00
4637;DHT22;2331;48.806;9.140;2023-08-17T03:26:42;23.60;1.00
4637;DHT22;2331;48.806;9.140;2023-08-17T03:29:08;23.50;1.00
4637;DHT22;2331;48.806;9.140;2023-08-17T03:31:35;23.60;1.00
4637;DHT22;2331;48.806;9.140;2023-08-17T03:34:02;23.50;1.00
4637;DHT22;2331;48.806;9.140;2023-08-17T03:36:29;23.50;1.00
4637;DHT22;2331;48.806;9.140;2023-08-17T03:38:57;23.50;1.00
4637;DHT22;2331;48.806;9.140;2023-08-17T03:41:24;23.50;1.00
4637;DHT22;2331;48.806;9.140;2023-08-17T03:43:51;23.50;1.00
4637;DHT22;2331;48.806;9.140;2023-08-17T03:46:18;23.50;1.00
4637;DHT22;2331;48.806;9.140;2023-08-17T03:48:44;23.50;1.00
4637;DHT22;2331;48.806;9.140;2023-08-17T03:51:11;23.50;1.00
4637;DHT22;2331;48.806;9.140;2023-08-17T03:53:38;23.50;1.00
4637;DHT22;2331;48.806;9.140;2023-08-17T03:56:06;23.50;1.00
4637;DHT22;2331;48.806;9.140;2023-08-17T03:58:32;23.50;1.00
4637;DHT22;2331;48.806;9.140;2023-08-17T04:01:00;23.50;1.00
4637;DHT22;2331;48.806;9.140;2023-08-17T04:03:27;23.50;1.00
4637;DHT22;2331;48.806;9.140;2023-08-17T04:05:53;23.50;1.00
4637;DHT22;2331;48.806;9.140;2023-08-17T04:08:20;23.50;1.00
4637;DHT22;2331;48.806;9.140;2023-08-17T04:10:47;23.50;1.00
4637;DHT22;2331;48.806;9.140;2023-08-17T04:13:15;23.50;1.00
4637;DHT22;2331;48.806;9.140;2023-08-17T04:15:42;23.50;1.00
4637;DHT22;2331;48.806;9.140;2023-08-17T04:18:08;23.50;1.00
4637;DHT22;2331;48.806;9.140;2023-08-17T04:20:35;23.50;1.00
4637;DHT22;2331;48.806;9.140;2023-08-17T04:23:02;23.40;1.00
4637;DHT22;2331;48.806;9.140;2023-08-17T04:25:29;23.40;1.00
4637;DHT22;2331;48.806;9.140;2023-08-17T04:27:56;23.40;1.00
4637;DHT22;2331;48.806;9.140;2023-08-17T04:30:24;23.40;1.00
4637;DHT22;2331;48.806;9.140;2023-08-17T04:32:50;23.50;1.00
4637;DHT22;2331;48.806;9.140;2023-08-17T04:35:18;23.50;1.00
4637;DHT22;2331;48.806;9.140;2023-08-17T04:37:45;23.40;1.00
4637;DHT22;2331;48.806;9.140;2023-08-17T04:40:12;23.50;1.00
4637;DHT22;2331;48.806;9.140;2023-08-17T04:42:39;23.40;1.00
4637;DHT22;2331;48.806;9.140;2023-08-17T04:45:07;23.40;1.00
4637;DHT22;2331;48.806;9.140;2023-08-17T04:47:35;23.40;1.00
4637;DHT22;2331;48.806;9.140;2023-08-17T04:50:01;23.40;1.00
4637;DHT22;2331;48.806;9.140;2023-08-17T04:52:28;23.40;1.00
4637;DHT22;2331;48.806;9.140;2023-08-17T04:54:55;23.50;1.00
4637;DHT22;2331;48.806;9.140;2023-08-17T04:57:21;23.50;1.00
4637;DHT22;2331;48.806;9.140;2023-08-17T04:59:48;23.50;1.00
4637;DHT22;2331;48.806;9.140;2023-08-17T05:02:15;23.50;1.00
4637;DHT22;2331;48.806;9.140;2023-08-17T05:04:43;23.50;1.00
4637;DHT22;2331;48.806;9.140;2023-08-17T05:07:09;23.50;1.00
4637;DHT22;2331;48.806;9.140;2023-08-17T05:09:36;23.50;1.00
4637;DHT22;2331;48.806;9.140;2023-08-17T05:12:03;23.40;1.00
4637;DHT22;2331;48.806;9.140;2023-08-17T05:14:30;23.50;1.00
4637;DHT22;2331;48.806;9.140;2023-08-17T05:16:57;23.50;1.00
4637;DHT22;2331;48.806;9.140;2023-08-17T05:19:23;23.50;1.00
4637;DHT22;2331;48.806;9.140;2023-08-17T05:21:52;23.50;1.00
4637;DHT22;2331;48.806;9.140;2023-08-17T05:24:19;23.50;1.00
4637;DHT22;2331;48.806;9.140;2023-08-17T05:26:46;23.50;1.00
4637;DHT22;2331;48.806;9.140;2023-08-17T05:29:13;23.50;1.00
4637;DHT22;2331;48.806;9.140;2023-08-17T05:31:39;23.50;1.00
4637;DHT22;2331;48.806;9.140;2023-08-17T05:34:06;23.60;1.00
4637;DHT22;2331;48.806;9.140;2023-08-17T05:36:33;23.50;1.00
4637;DHT22;2331;48.806;9.140;2023-08-17T05:39:01;23.60;1.00
4637;DHT22;2331;48.806;9.140;2023-08-17T05:41:28;23.60;1.00
4637;DHT22;2331;48.806;9.140;2023-08-17T05:43:55;23.50;1.00
4637;DHT22;2331;48.806;9.140;2023-08-17T05:46:22;23.60;1.00
4637;DHT22;2331;48.806;9.140;2023-08-17T05:48:48;23.60;1.00
4637;DHT22;2331;48.806;9.140;2023-08-17T05:51:15;23.50;1.00
4637;DHT22;2331;48.806;9.140;2023-08-17T05:53:42;23.50;1.00
4637;DHT22;2331;48.806;9.140;2023-08-17T05:56:10;23.50;1.00
4637;DHT22;2331;48.806;9.140;2023-08-17T05:58:36;23.60;1.00
4637;DHT22;2331;48.806;9.140;2023-08-17T06:01:06;23.50;1.00
4637;DHT22;2331;48.806;9.140;2023-08-17T06:03:33;23.60;1.00
4637;DHT22;2331;48.806;9.140;2023-08-17T06:06:00;23.60;1.00
4637;DHT22;2331;48.806;9.140;2023-08-17T06:08:27;23.60;1.00
4637;DHT22;2331;48.806;9.140;2023-08-17T06:10:53;23.70;1.00
4637;DHT22;2331;48.806;9.140;2023-08-17T06:13:21;23.60;1.00
4637;DHT22;2331;48.806;9.140;2023-08-17T06:15:48;23.70;1.00
4637;DHT22;2331;48.806;9.140;2023-08-17T06:18:15;23.70;1.00
4637;DHT22;2331;48.806;9.140;2023-08-17T06:20:42;23.70;1.00
4637;DHT22;2331;48.806;9.140;2023-08-17T06:23:08;23.70;1.00
4637;DHT22;2331;48.806;9.140;2023-08-17T06:25:35;23.70;1.00
4637;DHT22;2331;48.806;9.140;2023-08-17T06:28:02;23.70;1.00
4637;DHT22;2331;48.806;9.140;2023-08-17T06:30:30;23.70;1.00
4637;DHT22;2331;48.806;9.140;2023-08-17T06:32:57;23.70;1.00
4637;DHT22;2331;48.806;9.140;2023-08-17T06:35:24;23.80;1.00
4637;DHT22;2331;48.806;9.140;2023-08-17T06:37:51;23.80;1.00
4637;DHT22;2331;48.806;9.140;2023-08-17T06:40:21;23.80;1.00
4637;DHT22;2331;48.806;9.140;2023-08-17T06:42:48;23.80;1.00
4637;DHT22;2331;48.806;9.140;2023-08-17T06:45:14;23.80;1.00
4637;DHT22;2331;48.806;9.140;2023-08-17T06:47:45;23.90;1.00
4637;DHT22;2331;48.806;9.140;2023-08-17T06:50:14;23.90;1.00
4637;DHT22;2331;48.806;9.140;2023-08-17T06:52:40;24.00;1.00
4637;DHT22;2331;48.806;9.140;2023-08-17T06:55:08;24.00;1.00
4637;DHT22;2331;48.806;9.140;2023-08-17T06:57:34;24.00;1.00
4637;DHT22;2331;48.806;9.140;2023-08-17T07:00:01;24.00;1.00
4637;DHT22;2331;48.806;9.140;2023-08-17T07:02:30;24.10;1.00
4637;DHT22;2331;48.806;9.140;2023-08-17T07:04:58;24.20;1.00
4637;DHT22;2331;48.806;9.140;2023-08-17T07:07:25;24.20;1.00
4637;DHT22;2331;48.806;9.140;2023-08-17T07:09:52;24.10;1.00
4637;DHT22;2331;48.806;9.140;2023-08-17T07:12:18;24.20;1.00
4637;DHT22;2331;48.806;9.140;2023-08-17T07:14:45;24.20;1.00
4637;DHT22;2331;48.806;9.140;2023-08-17T07:17:12;24.30;1.00
4637;DHT22;2331;48.806;9.140;2023-08-17T07:19:40;24.30;1.00
4637;DHT22;2331;48.806;9.140;2023-08-17T07:22:08;24.30;1.00
4637;DHT22;2331;48.806;9.140;2023-08-17T07:24:34;24.30;1.00
4637;DHT22;2331;48.806;9.140;2023-08-17T07:27:01;24.40;1.00
4637;DHT22;2331;48.806;9.140;2023-08-17T07:29:28;24.40;1.00
4637;DHT22;2331;48.806;9.140;2023-08-17T07:31:54;24.40;1.00
4637;DHT22;2331;48.806;9.140;2023-08-17T07:34:23;24.50;1.00
4637;DHT22;2331;48.806;9.140;2023-08-17T07:36:50;24.50;1.00
4637;DHT22;2331;48.806;9.140;2023-08-17T07:39:18;24.50;1.00
4637;DHT22;2331;48.806;9.140;2023-08-17T07:41:45;24.60;1.00
4637;DHT22;2331;48.806;9.140;2023-08-17T07:44:11;24.60;1.00
4637;DHT22;2331;48.806;9.140;2023-08-17T07:46:38;24.60;1.00
4637;DHT22;2331;48.806;9.140;2023-08-17T07:49:05;24.60;1.00
4637;DHT22;2331;48.806;9.140;2023-08-17T07:51:32;24.60;1.00
4637;DHT22;2331;48.806;9.140;2023-08-17T07:53:59;24.60;1.00
4637;DHT22;2331;48.806;9.140;2023-08-17T07:56:27;24.70;1.00
4637;DHT22;2331;48.806;9.140;2023-08-17T07:58:54;24.70;1.00
4637;DHT22;2331;48.806;9.140;2023-08-17T08:01:20;24.70;1.00
4637;DHT22;2331;48.806;9.140;2023-08-17T08:03:47;24.80;1.00
4637;DHT22;2331;48.806;9.140;2023-08-17T08:06:14;24.80;1.00
4637;DHT22;2331;48.806;9.140;2023-08-17T08:08:40;24.80;1.00
4637;DHT22;2331;48.806;9.140;2023-08-17T08:11:07;24.80;1.00
4637;DHT22;2331;48.806;9.140;2023-08-17T08:13:35;24.80;1.00
4637;DHT22;2331;48.806;9.140;2023-08-17T08:16:03;24.80;1.00
4637;DHT22;2331;48.806;9.140;2023-08-17T08:18:29;24.90;1.00
4637;DHT22;2331;48.806;9.140;2023-08-17T08:20:56;25.00;1.00
4637;DHT22;2331;48.806;9.140;2023-08-17T08:23:24;25.00;1.00
4637;DHT22;2331;48.806;9.140;2023-08-17T08:25:51;25.00;1.00
4637;DHT22;2331;48.806;9.140;2023-08-17T08:28:18;25.00;1.00
4637;DHT22;2331;48.806;9.140;2023-08-17T08:30:46;25.00;1.00
4637;DHT22;2331;48.806;9.140;2023-08-17T08:33:13;25.00;1.00
4637;DHT22;2331;48.806;9.140;2023-08-17T08:35:39;25.10;1.00
4637;DHT22;2331;48.806;9.140;2023-08-17T08:38:06;25.10;1.00
4637;DHT22;2331;48.806;9.140;2023-08-17T08:40:33;25.20;1.00
4637;DHT22;2331;48.806;9.140;2023-08-17T08:43:03;25.30;1.00
4637;DHT22;2331;48.806;9.140;2023-08-17T08:45:30;25.40;1.00
4637;DHT22;2331;48.806;9.140;2023-08-17T08:48:00;25.40;1.00
4637;DHT22;2331;48.806;9.140;2023-08-17T08:50:31;25.60;1.00
4637;DHT22;2331;48.806;9.140;2023-08-17T08:52:59;25.70;1.00
4637;DHT22;2331;48.806;9.140;2023-08-17T08:55:29;25.70;1.00
4637;DHT22;2331;48.806;9.140;2023-08-17T08:57:58;25.80;1.00
4637;DHT22;2331;48.806;9.140;2023-08-17T09:00:26;25.80;1.00
4637;DHT22;2331;48.806;9.140;2023-08-17T09:02:53;25.90;1.00
4637;DHT22;2331;48.806;9.140;2023-08-17T09:05:22;26.00;1.00
4637;DHT22;2331;48.806;9.140;2023-08-17T09:07:49;26.10;1.00
4637;DHT22;2331;48.806;9.140;2023-08-17T09:10:16;26.10;1.00
4637;DHT22;2331;48.806;9.140;2023-08-17T09:12:45;26.20;1.00
4637;DHT22;2331;48.806;9.140;2023-08-17T09:15:11;26.20;1.00
4637;DHT22;2331;48.806;9.140;2023-08-17T09:17:38;26.30;1.00
4637;DHT22;2331;48.806;9.140;2023-08-17T09:20:06;26.40;1.00
4637;DHT22;2331;48.806;9.140;2023-08-17T09:22:39;26.50;1.00
4637;DHT22;2331;48.806;9.140;2023-08-17T09:25:08;26.50;1.00
4637;DHT22;2331;48.806;9.140;2023-08-17T09:27:35;26.60;1.00
4637;DHT22;2331;48.806;9.140;2023-08-17T09:30:03;26.60;1.00
4637;DHT22;2331;48.806;9.140;2023-08-17T09:32:31;26.70;1.00
4637;DHT22;2331;48.806;9.140;2023-08-17T09:35:00;26.70;1.00
4637;DHT22;2331;48.806;9.140;2023-08-17T09:37:26;26.80;1.00
4637;DHT22;2331;48.806;9.140;2023-08-17T09:39:55;26.90;1.00
4637;DHT22;2331;48.806;9.140;2023-08-17T09:42:22;27.00;1.00
4637;DHT22;2331;48.806;9.140;2023-08-17T09:44:50;27.10;1.00
4637;DHT22;2331;48.806;9.140;2023-08-17T09:47:17;27.20;1.00
4637;DHT22;2331;48.806;9.140;2023-08-17T09:49:48;27.20;1.00
4637;DHT22;2331;48.806;9.140;2023-08-17T09:52:15;27.20;1.00
4637;DHT22;2331;48.806;9.140;2023-08-17T09:54:42;27.20;1.00
4637;DHT22;2331;48.806;9.140;2023-08-17T09:57:11;27.40;1.00
4637;DHT22;2331;48.806;9.140;2023-08-17T09:59:38;27.40;1.00
4637;DHT22;2331;48.806;9.140;2023-08-17T10:02:10;27.50;1.00
4637;DHT22;2331;48.806;9.140;2023-08-17T10:04:41;27.50;1.00
4637;DHT22;2331;48.806;9.140;2023-08-17T10:07:09;27.60;1.00
4637;DHT22;2331;48.806;9.140;2023-08-17T10:09:42;27.70;1.00
4637;DHT22;2331;48.806;9.140;2023-08-17T10:12:15;27.70;1.00
4637;DHT22;2331;48.806;9.140;2023-08-17T10:14:49;27.70;1.00
4637;DHT22;2331;48.806;9.140;2023-08-17T10:17:22;27.60;1.00
4637;DHT22;2331;48.806;9.140;2023-08-17T10:19:54;27.80;1.00
4637;DHT22;2331;48.806;9.140;2023-08-17T10:22:27;27.90;1.00
4637;DHT22;2331;48.806;9.140;2023-08-17T10:24:56;28.00;1.00
4637;DHT22;2331;48.806;9.140;2023-08-17T10:27:25;28.10;1.00
4637;DHT22;2331;48.806;9.140;2023-08-17T10:29:52;28.30;1.00
4637;DHT22;2331;48.806;9.140;2023-08-17T10:32:21;28.30;1.00
4637;DHT22;2331;48.806;9.140;2023-08-17T10:34:50;28.40;1.00
4637;DHT22;2331;48.806;9.140;2023-08-17T10:37:18;28.40;1.00
4637;DHT22;2331;48.806;9.140;2023-08-17T10:39:46;28.50;1.00
4637;DHT22;2331;48.806;9.140;2023-08-17T10:42:13;28.50;1.00
4637;DHT22;2331;48.806;9.140;2023-08-17T10:44:44;28.60;1.00
4637;DHT22;2331;48.806;9.140;2023-08-17T10:47:21;28.60;1.00
4637;DHT22;2331;48.806;9.140;2023-08-17T10:49:49;28.60;1.00
4637;DHT22;2331;48.806;9.140;2023-08-17T10:52:25;28.80;1.00
4637;DHT22;2331;48.806;9.140;2023-08-17T10:54:53;28.70;1.00
4637;DHT22;2331;48.806;9.140;2023-08-17T10:57:34;28.80;1.00
4637;DHT22;2331;48.806;9.140;2023-08-17T11:00:14;28.90;1.00
4637;DHT22;2331;48.806;9.140;2023-08-17T11:02:43;29.00;1.00
4637;DHT22;2331;48.806;9.140;2023-08-17T11:05:11;29.10;1.00
4637;DHT22;2331;48.806;9.140;2023-08-17T11:07:39;29.10;1.00
4637;DHT22;2331;48.806;9.140;2023-08-17T11:10:11;29.20;1.00
4637;DHT22;2331;48.806;9.140;2023-08-17T11:12:40;29.30;1.00
4637;DHT22;2331;48.806;9.140;2023-08-17T11:15:09;29.40;1.00
4637;DHT22;2331;48.806;9.140;2023-08-17T11:17:36;29.50;1.00
4637;DHT22;2331;48.806;9.140;2023-08-17T11:20:03;29.50;1.00
4637;DHT22;2331;48.806;9.140;2023-08-17T11:22:30;29.60;1.00
4637;DHT22;2331;48.806;9.140;2023-08-17T11:24:58;29.60;1.00
4637;DHT22;2331;48.806;9.140;2023-08-17T11:27:25;29.70;1.00
4637;DHT22;2331;48.806;9.140;2023-08-17T11:29:52;29.80;1.00
4637;DHT22;2331;48.806;9.140;2023-08-17T11:32:20;29.80;1.00
4637;DHT22;2331;48.806;9.140;2023-08-17T11:34:47;29.80;1.00
4637;DHT22;2331;48.806;9.140;2023-08-17T11:37:14;29.80;1.00
4637;DHT22;2331;48.806;9.140;2023-08-17T11:39:42;29.90;1.00
4637;DHT22;2331;48.806;9.140;2023-08-17T11:42:09;29.90;1.00
4637;DHT22;2331;48.806;9.140;2023-08-17T11:44:35;30.00;1.00
4637;DHT22;2331;48.806;9.140;2023-08-17T11:47:02;30.00;1.00
4637;DHT22;2331;48.806;9.140;2023-08-17T11:49:31;30.10;1.00
4637;DHT22;2331;48.806;9.140;2023-08-17T11:51:58;30.10;1.00
4637;DHT22;2331;48.806;9.140;2023-08-17T11:54:25;30.20;1.00
4637;DHT22;2331;48.806;9.140;2023-08-17T11:56:52;30.20;1.00
4637;DHT22;2331;48.806;9.140;2023-08-17T11:59:19;30.20;1.00
4637;DHT22;2331;48.806;9.140;2023-08-17T12:01:46;30.20;1.00
4637;DHT22;2331;48.806;9.140;2023-08-17T12:04:14;30.20;1.00
4637;DHT22;2331;48.806;9.140;2023-08-17T12:06:44;30.20;1.00
4637;DHT22;2331;48.806;9.140;2023-08-17T12:09:11;30.20;1.00
4637;DHT22;2331;48.806;9.140;2023-08-17T12:11:39;30.10;1.00
4637;DHT22;2331;48.806;9.140;2023-08-17T12:14:10;30.20;1.00
4637;DHT22;2331;48.806;9.140;2023-08-17T12:16:45;30.20;1.00
4637;DHT22;2331;48.806;9.140;2023-08-17T12:19:13;30.10;1.00
4637;DHT22;2331;48.806;9.140;2023-08-17T12:21:40;30.10;1.00
4637;DHT22;2331;48.806;9.140;2023-08-17T12:24:10;30.20;1.00
4637;DHT22;2331;48.806;9.140;2023-08-17T12:26:41;30.20;1.00
4637;DHT22;2331;48.806;9.140;2023-08-17T12:29:08;30.20;1.00
4637;DHT22;2331;48.806;9.140;2023-08-17T12:31:35;30.20;1.00
4637;DHT22;2331;48.806;9.140;2023-08-17T12:34:02;30.10;1.00
4637;DHT22;2331;48.806;9.140;2023-08-17T12:36:29;30.10;1.00
4637;DHT22;2331;48.806;9.140;2023-08-17T12:38:56;30.30;1.00
4637;DHT22;2331;48.806;9.140;2023-08-17T12:41:24;30.20;1.00
4637;DHT22;2331;48.806;9.140;2023-08-17T12:43:51;30.00;1.00
4637;DHT22;2331;48.806;9.140;2023-08-17T12:46:19;30.00;1.00
4637;DHT22;2331;48.806;9.140;2023-08-17T12:48:46;29.90;1.00
4637;DHT22;2331;48.806;9.140;2023-08-17T12:51:13;29.80;1.00
4637;DHT22;2331;48.806;9.140;2023-08-17T12:53:40;29.70;1.00
4637;DHT22;2331;48.806;9.140;2023-08-17T12:56:07;29.60;1.00
4637;DHT22;2331;48.806;9.140;2023-08-17T12:58:35;29.60;1.00
4637;DHT22;2331;48.806;9.140;2023-08-17T13:01:02;29.50;1.00
4637;DHT22;2331;48.806;9.140;2023-08-17T13:03:29;29.40;1.00
4637;DHT22;2331;48.806;9.140;2023-08-17T13:05:55;29.40;1.00
4637;DHT22;2331;48.806;9.140;2023-08-17T13:08:22;29.40;1.00
4637;DHT22;2331;48.806;9.140;2023-08-17T13:10:49;29.30;1.00
4637;DHT22;2331;48.806;9.140;2023-08-17T13:13:16;29.00;1.00
4637;DHT22;2331;48.806;9.140;2023-08-17T13:15:44;28.80;1.00
4637;DHT22;2331;48.806;9.140;2023-08-17T13:18:11;28.70;1.00
4637;DHT22;2331;48.806;9.140;2023-08-17T13:20:37;28.60;1.00
4637;DHT22;2331;48.806;9.140;2023-08-17T13:23:05;28.50;1.00
4637;DHT22;2331;48.806;9.140;2023-08-17T13:25:32;28.40;1.00
4637;DHT22;2331;48.806;9.140;2023-08-17T13:27:59;28.40;1.00
4637;DHT22;2331;48.806;9.140;2023-08-17T13:30:26;28.30;1.00
4637;DHT22;2331;48.806;9.140;2023-08-17T13:32:55;28.30;1.00
4637;DHT22;2331;48.806;9.140;2023-08-17T13:35:22;28.10;1.00
4637;DHT22;2331;48.806;9.140;2023-08-17T13:37:51;28.00;1.00
4637;DHT22;2331;48.806;9.140;2023-08-17T13:40:19;27.90;1.00
4637;DHT22;2331;48.806;9.140;2023-08-17T13:42:45;27.80;1.00
4637;DHT22;2331;48.806;9.140;2023-08-17T13:45:13;27.70;1.00
4637;DHT22;2331;48.806;9.140;2023-08-17T13:47:40;27.70;1.00
4637;DHT22;2331;48.806;9.140;2023-08-17T13:50:08;27.40;1.00
4637;DHT22;2331;48.806;9.140;2023-08-17T13:52:35;27.10;1.00
4637;DHT22;2331;48.806;9.140;2023-08-17T13:55:02;27.20;1.00
4637;DHT22;2331;48.806;9.140;2023-08-17T13:57:29;27.20;1.00
4637;DHT22;2331;48.806;9.140;2023-08-17T13:59:55;27.10;1.00
4637;DHT22;2331;48.806;9.140;2023-08-17T14:02:22;27.10;1.00
4637;DHT22;2331;48.806;9.140;2023-08-17T14:04:49;27.00;1.00
4637;DHT22;2331;48.806;9.140;2023-08-17T14:07:17;27.10;1.00
4637;DHT22;2331;48.806;9.140;2023-08-17T14:09:43;27.10;1.00
4637;DHT22;2331;48.806;9.140;2023-08-17T14:12:10;27.00;1.00
4637;DHT22;2331;48.806;9.140;2023-08-17T14:14:37;27.00;1.00
4637;DHT22;2331;48.806;9.140;2023-08-17T14:17:04;27.00;1.00
4637;DHT22;2331;48.806;9.140;2023-08-17T14:19:30;27.10;1.00
4637;DHT22;2331;48.806;9.140;2023-08-17T14:21:57;27.10;1.00
4637;DHT22;2331;48.806;9.140;2023-08-17T14:24:27;27.10;1.00
4637;DHT22;2331;48.806;9.140;2023-08-17T14:26:54;27.10;1.00
4637;DHT22;2331;48.806;9.140;2023-08-17T14:29:22;27.10;1.00
4637;DHT22;2331;48.806;9.140;2023-08-17T14:31:49;27.10;1.00
4637;DHT22;2331;48.806;9.140;2023-08-17T14:34:15;27.10;1.00
4637;DHT22;2331;48.806;9.140;2023-08-17T14:36:42;27.10;1.00
4637;DHT22;2331;48.806;9.140;2023-08-17T14:39:09;27.10;1.00
4637;DHT22;2331;48.806;9.140;2023-08-17T14:41:37;27.10;1.00
4637;DHT22;2331;48.806;9.140;2023-08-17T14:44:04;27.10;1.00
4637;DHT22;2331;48.806;9.140;2023-08-17T14:46:31;27.00;1.00
4637;DHT22;2331;48.806;9.140;2023-08-17T14:48:58;27.10;1.00
4637;DHT22;2331;48.806;9.140;2023-08-17T14:51:24;27.10;1.00
4637;DHT22;2331;48.806;9.140;2023-08-17T14:53:51;27.10;1.00
4637;DHT22;2331;48.806;9.140;2023-08-17T14:56:18;27.20;1.00
4637;DHT22;2331;48.806;9.140;2023-08-17T14:58:46;27.10;1.00
4637;DHT22;2331;48.806;9.140;2023-08-17T15:01:12;27.20;1.00
4637;DHT22;2331;48.806;9.140;2023-08-17T15:03:39;27.20;1.00
4637;DHT22;2331;48.806;9.140;2023-08-17T15:06:06;27.30;1.00
4637;DHT22;2331;48.806;9.140;2023-08-17T15:08:33;27.30;1.00
4637;DHT22;2331;48.806;9.140;2023-08-17T15:10:59;27.40;1.00
4637;DHT22;2331;48.806;9.140;2023-08-17T15:13:28;27.30;1.00
4637;DHT22;2331;48.806;9.140;2023-08-17T15:15:56;27.20;1.00
4637;DHT22;2331;48.806;9.140;2023-08-17T15:18:23;27.30;1.00
4637;DHT22;2331;48.806;9.140;2023-08-17T15:20:49;27.40;1.00
4637;DHT22;2331;48.806;9.140;2023-08-17T15:23:16;27.50;1.00
4637;DHT22;2331;48.806;9.140;2023-08-17T15:25:42;27.40;1.00
4637;DHT22;2331;48.806;9.140;2023-08-17T15:28:09;27.50;1.00
4637;DHT22;2331;48.806;9.140;2023-08-17T15:30:36;27.50;1.00
4637;DHT22;2331;48.806;9.140;2023-08-17T15:33:04;27.50;1.00
4637;DHT22;2331;48.806;9.140;2023-08-17T15:35:31;27.50;1.00
4637;DHT22;2331;48.806;9.140;2023-08-17T15:37:57;27.50;1.00
4637;DHT22;2331;48.806;9.140;2023-08-17T15:40:24;27.60;1.00
4637;DHT22;2331;48.806;9.140;2023-08-17T15:42:51;27.60;1.00
4637;DHT22;2331;48.806;9.140;2023-08-17T15:45:18;27.70;1.00
4637;DHT22;2331;48.806;9.140;2023-08-17T15:47:46;27.80;1.00
4637;DHT22;2331;48.806;9.140;2023-08-17T15:50:14;27.70;1.00
4637;DHT22;2331;48.806;9.140;2023-08-17T15:52:40;27.80;1.00
4637;DHT22;2331;48.806;9.140;2023-08-17T15:55:07;27.80;1.00
4637;DHT22;2331;48.806;9.140;2023-08-17T15:57:34;27.80;1.00
4637;DHT22;2331;48.806;9.140;2023-08-17T16:00:02;27.70;1.00
4637;DHT22;2331;48.806;9.140;2023-08-17T16:02:29;27.80;1.00
4637;DHT22;2331;48.806;9.140;2023-08-17T16:04:56;28.00;1.00
4637;DHT22;2331;48.806;9.140;2023-08-17T16:07:24;28.00;1.00
4637;DHT22;2331;48.806;9.140;2023-08-17T16:09:51;28.10;1.00
4637;DHT22;2331;48.806;9.140;2023-08-17T16:12:17;28.10;1.00
4637;DHT22;2331;48.806;9.140;2023-08-17T16:14:44;28.20;1.00
4637;DHT22;2331;48.806;9.140;2023-08-17T16:17:11;28.20;1.00
4637;DHT22;2331;48.806;9.140;2023-08-17T16:19:37;28.30;1.00